Time;durP1;ratioP1;P1;durP2;ratioP2;P2;SDS_P1;SDS_P2;PMS_P1;PMS_P2;Temp;Humidity;BMP_temperature;BMP_pressure;BME280_temperature;BME280_humidity;BME280_pressure;Samples;Min_cycle;Max_cycle;Signal;HPM_P1;HPM_P2
2023/03/19 00:02:25;;;;;;;9.50;5.30;;;8.90;99.90;;;;;;5009616;28;20475;-74
2023/03/19 00:05:11;;;;;;;9.13;5.17;;;8.90;99.90;;;;;;5009836;28;20972;-73
2023/03/19 00:07:56;;;;;;;7.90;4.73;;;9.00;99.90;;;;;;5009166;28;20872;-73
2023/03/19 00:10:43;;;;;;;8.50;6.17;;;9.00;99.90;;;;;;5006452;28;20536;-73
2023/03/19 00:13:28;;;;;;;7.77;5.60;;;9.10;99.90;;;;;;5007743;28;20422;-73
2023/03/19 00:16:14;;;;;;;7.67;4.80;;;9.20;99.90;;;;;;5002011;28;20823;-73
2023/03/19 00:19:01;;;;;;;12.93;7.00;;;9.30;99.90;;;;;;5011555;28;20475;-73
2023/03/19 00:21:46;;;;;;;9.13;5.37;;;9.40;99.90;;;;;;5010649;28;20589;-72
2023/03/19 00:24:33;;;;;;;7.63;4.70;;;9.50;99.90;;;;;;5002711;28;20457;-73
2023/03/19 00:27:20;;;;;;;8.30;4.83;;;9.40;99.90;;;;;;5001464;28;20480;-73
2023/03/19 00:30:07;;;;;;;9.40;5.10;;;9.50;99.90;;;;;;5007410;28;20454;-73
2023/03/19 00:32:53;;;;;;;11.00;4.40;;;9.50;99.90;;;;;;5007698;28;20465;-73
2023/03/19 00:35:40;;;;;;;12.87;5.27;;;9.60;99.90;;;;;;5008357;28;20795;-73
2023/03/19 00:38:25;;;;;;;8.00;5.10;;;9.50;99.90;;;;;;5003401;28;20940;-74
2023/03/19 00:41:11;;;;;;;9.83;6.80;;;9.30;99.90;;;;;;5009467;28;20634;-73
2023/03/19 00:43:58;;;;;;;9.40;6.50;;;9.20;99.90;;;;;;5007834;28;20442;-73
2023/03/19 00:46:45;;;;;;;7.23;5.43;;;9.20;99.90;;;;;;5005833;28;21015;-73
2023/03/19 00:49:30;;;;;;;9.00;5.43;;;9.20;99.90;;;;;;5010352;28;20454;-72
2023/03/19 00:52:16;;;;;;;9.17;5.43;;;9.30;99.90;;;;;;5008515;28;20433;-73
2023/03/19 00:55:01;;;;;;;12.97;6.07;;;9.40;99.90;;;;;;5008874;28;20427;-73
2023/03/19 00:57:47;;;;;;;10.13;6.50;;;9.40;99.90;;;;;;5011001;28;21028;-73
2023/03/19 01:00:35;;;;;;;18.00;6.00;;;9.40;99.90;;;;;;5007672;28;20566;-73
2023/03/19 01:03:21;;;;;;;9.77;7.00;;;9.50;99.90;;;;;;5012987;28;21003;-73
2023/03/19 01:06:07;;;;;;;13.43;8.17;;;9.50;99.90;;;;;;5001876;28;20426;-73
2023/03/19 01:08:52;;;;;;;9.90;7.70;;;9.50;99.90;;;;;;5014207;28;20487;-73
2023/03/19 01:11:38;;;;;;;11.77;8.20;;;9.60;99.90;;;;;;5006268;28;20502;-73
2023/03/19 01:14:24;;;;;;;23.83;11.33;;;9.70;99.90;;;;;;5009417;28;20435;-73
2023/03/19 01:17:11;;;;;;;13.27;8.77;;;9.40;99.90;;;;;;5008121;28;20452;-73
2023/03/19 01:19:57;;;;;;;12.70;8.93;;;9.40;99.90;;;;;;5014083;28;20448;-73
2023/03/19 01:22:43;;;;;;;11.83;9.90;;;9.40;99.90;;;;;;5008472;28;20957;-73
2023/03/19 01:25:29;;;;;;;14.50;9.43;;;9.50;99.90;;;;;;5009577;28;20466;-73
2023/03/19 01:28:15;;;;;;;18.83;9.57;;;9.40;99.90;;;;;;5009975;28;20634;-73
2023/03/19 01:31:01;;;;;;;11.67;8.97;;;9.30;99.90;;;;;;5008638;28;20607;-73
2023/03/19 01:33:48;;;;;;;11.43;8.83;;;9.30;99.90;;;;;;5011134;28;20527;-73
2023/03/19 01:36:33;;;;;;;17.00;9.20;;;9.30;99.90;;;;;;5007568;28;20943;-73
2023/03/19 01:39:19;;;;;;;13.10;8.40;;;9.30;99.90;;;;;;5012873;28;21120;-73
2023/03/19 01:42:05;;;;;;;13.47;8.00;;;9.20;99.90;;;;;;5002778;28;20449;-73
2023/03/19 01:44:51;;;;;;;8.60;6.50;;;9.00;99.90;;;;;;5008109;28;20587;-73
2023/03/19 01:47:39;;;;;;;9.60;7.07;;;9.00;99.90;;;;;;5008077;28;20453;-73
2023/03/19 01:50:38;;;;;;;11.37;7.63;;;9.10;99.90;;;;;;5014034;28;20825;-73
2023/03/19 01:53:27;;;;;;;8.80;6.50;;;9.10;99.90;;;;;;5008647;28;20427;-73
2023/03/19 01:56:16;;;;;;;11.03;7.10;;;9.20;99.90;;;;;;4997448;28;20981;-73
2023/03/19 01:59:06;;;;;;;10.50;6.73;;;9.00;99.90;;;;;;5010327;28;20510;-73
2023/03/19 02:01:57;;;;;;;13.40;8.73;;;8.90;99.90;;;;;;5004526;28;20431;-73
2023/03/19 02:04:44;;;;;;;11.40;7.30;;;9.00;99.90;;;;;;5004379;28;20424;-73
2023/03/19 02:07:33;;;;;;;11.73;6.40;;;8.90;99.90;;;;;;5008711;28;20531;-73
2023/03/19 02:10:21;;;;;;;9.27;6.27;;;8.80;99.90;;;;;;5010192;28;20460;-73
2023/03/19 02:13:07;;;;;;;8.57;5.30;;;8.60;99.90;;;;;;5009051;28;20475;-73
2023/03/19 02:15:52;;;;;;;12.00;6.33;;;8.60;99.90;;;;;;5005392;28;20452;-73
2023/03/19 02:18:38;;;;;;;11.70;7.17;;;8.60;99.90;;;;;;5007937;28;20460;-73
2023/03/19 02:21:23;;;;;;;12.40;7.00;;;8.60;99.90;;;;;;5002662;28;20447;-73
2023/03/19 02:24:15;;;;;;;11.33;7.00;;;8.70;99.90;;;;;;4998638;28;21079;-73
2023/03/19 02:27:03;;;;;;;11.30;7.20;;;8.70;99.90;;;;;;5008351;28;21003;-73
2023/03/19 02:29:49;;;;;;;10.40;6.93;;;8.50;99.90;;;;;;5003387;28;20954;-73
2023/03/19 02:32:34;;;;;;;11.47;6.83;;;8.40;99.90;;;;;;5010150;28;20439;-72
2023/03/19 02:35:20;;;;;;;9.13;7.07;;;8.30;99.90;;;;;;4995826;28;20435;-73
2023/03/19 02:38:06;;;;;;;9.50;7.20;;;8.30;99.90;;;;;;5004598;28;20588;-73
2023/03/19 02:40:55;;;;;;;9.17;6.40;;;8.40;99.90;;;;;;5004929;28;20441;-73
2023/03/19 02:43:43;;;;;;;8.50;6.50;;;8.30;99.90;;;;;;5006798;28;20559;-73
2023/03/19 02:46:28;;;;;;;10.40;6.50;;;8.30;99.90;;;;;;5000895;28;20439;-73
2023/03/19 02:49:14;;;;;;;12.23;6.83;;;8.30;99.90;;;;;;5004237;28;20483;-73
2023/03/19 02:52:00;;;;;;;10.73;6.67;;;8.30;99.90;;;;;;5010608;28;20819;-73
2023/03/19 02:54:47;;;;;;;8.60;6.10;;;8.30;99.90;;;;;;5005019;28;20819;-73
2023/03/19 02:57:32;;;;;;;10.37;6.43;;;8.40;99.90;;;;;;5012805;28;20429;-74
2023/03/19 03:00:20;;;;;;;8.50;5.40;;;8.30;99.90;;;;;;5008709;28;20526;-73
2023/03/19 03:03:06;;;;;;;8.57;5.63;;;8.40;99.90;;;;;;5000785;28;20456;-73
2023/03/19 03:05:52;;;;;;;8.90;6.30;;;8.40;99.90;;;;;;5006361;28;20451;-73
2023/03/19 03:08:38;;;;;;;10.77;6.63;;;8.50;99.90;;;;;;5006957;28;20457;-73
2023/03/19 03:11:23;;;;;;;7.80;6.23;;;8.60;99.90;;;;;;5000694;28;20452;-73
2023/03/19 03:14:09;;;;;;;11.67;6.70;;;8.60;99.90;;;;;;5009195;28;20785;-73
2023/03/19 03:16:57;;;;;;;11.43;7.10;;;8.60;99.90;;;;;;5006358;28;20431;-73
2023/03/19 03:19:43;;;;;;;10.17;6.13;;;8.60;99.90;;;;;;5009072;28;21570;-73
2023/03/19 03:22:29;;;;;;;9.77;7.17;;;8.50;99.90;;;;;;5011823;28;20402;-73
2023/03/19 03:25:14;;;;;;;7.97;5.90;;;8.50;99.90;;;;;;5004451;28;21010;-73
2023/03/19 03:28:00;;;;;;;12.20;6.23;;;8.50;99.90;;;;;;5003569;28;21012;-73
2023/03/19 03:30:46;;;;;;;12.90;7.10;;;8.60;99.90;;;;;;5007290;28;20459;-73
2023/03/19 03:33:33;;;;;;;7.87;6.30;;;8.60;99.90;;;;;;5010262;28;20449;-73
2023/03/19 03:36:19;;;;;;;10.13;7.00;;;8.70;99.90;;;;;;5004083;28;20459;-73
2023/03/19 03:39:05;;;;;;;11.93;6.50;;;8.60;99.90;;;;;;5016767;28;20591;-73
2023/03/19 03:41:51;;;;;;;18.13;6.77;;;8.70;99.90;;;;;;5014352;28;20423;-73
2023/03/19 03:44:37;;;;;;;7.03;5.63;;;8.70;99.90;;;;;;5004210;28;20468;-73
2023/03/19 03:47:22;;;;;;;9.97;6.67;;;8.80;99.90;;;;;;5019099;28;20524;-73
2023/03/19 03:50:11;;;;;;;9.43;6.67;;;8.80;99.90;;;;;;5006143;28;22977;-73
2023/03/19 03:52:57;;;;;;;7.23;6.03;;;8.60;99.90;;;;;;5014089;28;21043;-73
2023/03/19 03:55:42;;;;;;;14.73;7.13;;;8.70;99.90;;;;;;5006482;28;20422;-73
2023/03/19 03:58:28;;;;;;;9.50;6.23;;;8.80;99.90;;;;;;5012734;28;20463;-73
2023/03/19 04:01:16;;;;;;;7.97;6.00;;;8.90;99.90;;;;;;5008545;28;20426;-73
2023/03/19 04:04:01;;;;;;;9.37;6.87;;;8.90;99.90;;;;;;5002939;28;20503;-73
2023/03/19 04:06:48;;;;;;;8.93;6.37;;;8.90;99.90;;;;;;5009956;28;20457;-73
2023/03/19 04:09:34;;;;;;;13.70;6.10;;;8.90;99.90;;;;;;5008567;28;20491;-73
2023/03/19 04:12:20;;;;;;;10.17;6.40;;;8.90;99.90;;;;;;5006514;28;20448;-73
2023/03/19 04:15:08;;;;;;;7.40;5.90;;;8.90;99.90;;;;;;5002308;28;20980;-73
2023/03/19 04:17:53;;;;;;;10.43;6.77;;;9.00;99.90;;;;;;5014698;28;20948;-73
2023/03/19 04:20:40;;;;;;;11.33;7.83;;;8.80;99.90;;;;;;5011249;28;20421;-73
2023/03/19 04:23:27;;;;;;;12.10;7.30;;;8.90;99.90;;;;;;5015259;28;20455;-73
2023/03/19 04:26:12;;;;;;;10.30;6.13;;;8.90;99.90;;;;;;5006260;28;21056;-73
2023/03/19 04:28:58;;;;;;;10.33;6.80;;;9.00;99.90;;;;;;5010492;28;20446;-73
2023/03/19 04:31:44;;;;;;;8.43;7.10;;;8.90;99.90;;;;;;5014077;28;20489;-73
2023/03/19 04:34:30;;;;;;;11.53;8.40;;;8.90;99.90;;;;;;5008393;28;20569;-73
2023/03/19 04:37:16;;;;;;;9.90;7.60;;;9.00;99.90;;;;;;5007030;28;20598;-73
2023/03/19 04:40:04;;;;;;;8.50;6.70;;;9.00;99.90;;;;;;5010245;28;20463;-73
2023/03/19 04:42:49;;;;;;;9.53;7.17;;;9.10;99.90;;;;;;5005759;28;20538;-73
2023/03/19 04:45:35;;;;;;;8.53;6.70;;;9.10;99.90;;;;;;5011134;28;20531;-73
2023/03/19 04:48:21;;;;;;;13.93;6.40;;;9.10;99.90;;;;;;5006771;28;20933;-73
2023/03/19 04:51:08;;;;;;;11.17;6.33;;;9.20;99.90;;;;;;5009108;28;20445;-73
2023/03/19 04:53:53;;;;;;;9.80;6.63;;;9.10;99.90;;;;;;5006244;28;20916;-73
2023/03/19 04:56:41;;;;;;;10.77;7.33;;;9.20;99.90;;;;;;5014727;28;20946;-73
2023/03/19 04:59:26;;;;;;;13.43;7.63;;;9.20;99.90;;;;;;5007227;28;20468;-73
2023/03/19 05:02:13;;;;;;;7.33;6.20;;;9.10;99.90;;;;;;5012355;28;20506;-73
2023/03/19 05:04:59;;;;;;;9.80;6.93;;;9.00;99.90;;;;;;5008836;28;20510;-73
2023/03/19 05:07:44;;;;;;;9.20;7.50;;;8.90;99.90;;;;;;5006894;28;20438;-73
2023/03/19 05:10:31;;;;;;;11.13;7.10;;;8.90;99.90;;;;;;5004661;28;20532;-73
2023/03/19 05:13:17;;;;;;;8.47;7.30;;;8.90;99.90;;;;;;5008239;28;20448;-73
2023/03/19 05:16:03;;;;;;;9.97;7.80;;;8.90;99.90;;;;;;5011270;28;20511;-73
2023/03/19 05:18:49;;;;;;;10.03;7.73;;;8.90;99.90;;;;;;5012065;28;20509;-73
2023/03/19 05:21:34;;;;;;;15.17;8.60;;;8.80;99.90;;;;;;5003111;28;20834;-73
2023/03/19 05:24:20;;;;;;;13.73;7.57;;;8.80;99.90;;;;;;5002072;28;20819;-72
2023/03/19 05:27:06;;;;;;;10.60;8.00;;;8.80;99.90;;;;;;5007913;28;20430;-73
2023/03/19 05:29:53;;;;;;;14.00;7.47;;;8.80;99.90;;;;;;5009685;28;20633;-73
2023/03/19 05:32:39;;;;;;;8.27;6.10;;;8.80;99.90;;;;;;5002844;28;20427;-73
2023/03/19 05:35:26;;;;;;;12.93;6.53;;;8.90;99.90;;;;;;5009197;28;20494;-73
2023/03/19 05:38:12;;;;;;;8.87;6.80;;;8.90;99.90;;;;;;5011885;28;20468;-73
2023/03/19 05:41:03;;;;;;;11.30;6.40;;;9.00;99.90;;;;;;5012456;28;20475;-73
2023/03/19 05:43:48;;;;;;;8.07;5.70;;;9.00;99.90;;;;;;5007798;28;20449;-72
2023/03/19 05:46:35;;;;;;;12.63;6.10;;;9.00;99.90;;;;;;5000308;28;21011;-73
2023/03/19 05:49:21;;;;;;;9.70;7.10;;;8.90;99.90;;;;;;5010636;28;20462;-73
2023/03/19 05:52:07;;;;;;;11.27;6.80;;;9.00;99.90;;;;;;5007064;28;21035;-73
2023/03/19 05:54:52;;;;;;;17.20;7.20;;;8.80;99.90;;;;;;5013038;28;20519;-73
2023/03/19 05:57:38;;;;;;;8.13;6.57;;;8.90;99.90;;;;;;5010177;28;20537;-73
2023/03/19 06:00:24;;;;;;;8.70;5.97;;;8.70;99.90;;;;;;5010541;28;20451;-73
2023/03/19 06:03:11;;;;;;;8.67;6.67;;;8.80;99.90;;;;;;4999980;28;20461;-73
2023/03/19 06:05:57;;;;;;;13.63;6.23;;;8.80;99.90;;;;;;5009897;28;20427;-73
2023/03/19 06:08:43;;;;;;;10.57;6.80;;;8.80;99.90;;;;;;5015557;28;20462;-72
2023/03/19 06:11:29;;;;;;;16.37;6.90;;;8.90;99.90;;;;;;5007459;28;20449;-72
2023/03/19 06:14:14;;;;;;;7.67;6.60;;;8.90;99.90;;;;;;5003778;28;20455;-73
2023/03/19 06:17:00;;;;;;;11.20;6.87;;;8.90;99.90;;;;;;5011228;28;20441;-72
2023/03/19 06:19:47;;;;;;;9.43;6.77;;;8.90;99.90;;;;;;5015865;28;20577;-72
2023/03/19 06:22:33;;;;;;;9.07;6.83;;;9.00;99.90;;;;;;5005974;28;20420;-72
2023/03/19 06:25:18;;;;;;;12.17;6.93;;;9.00;99.90;;;;;;5010327;28;20449;-72
2023/03/19 06:28:05;;;;;;;9.93;6.77;;;9.00;99.90;;;;;;5008481;28;20436;-72
2023/03/19 06:30:50;;;;;;;9.00;6.57;;;9.10;99.90;;;;;;5012056;28;20438;-73
2023/03/19 06:33:36;;;;;;;9.10;6.50;;;9.00;99.90;;;;;;5005538;28;20458;-72
2023/03/19 06:36:23;;;;;;;9.17;6.50;;;9.10;99.90;;;;;;5004839;28;20506;-72
2023/03/19 06:39:09;;;;;;;9.33;6.90;;;9.00;99.90;;;;;;5012088;28;20472;-72
2023/03/19 06:41:55;;;;;;;10.23;9.00;;;9.10;99.90;;;;;;5010662;28;20531;-72
2023/03/19 06:44:40;;;;;;;16.80;9.67;;;9.20;99.90;;;;;;5009773;28;20443;-72
2023/03/19 06:47:27;;;;;;;11.93;9.40;;;9.20;99.90;;;;;;5009287;28;20448;-72
2023/03/19 06:50:13;;;;;;;11.90;8.80;;;9.30;99.90;;;;;;5012584;28;20453;-72
2023/03/19 06:53:01;;;;;;;8.90;6.70;;;9.40;99.90;;;;;;5007968;28;21070;-72
2023/03/19 06:55:46;;;;;;;10.67;7.40;;;9.40;99.90;;;;;;5006334;28;20443;-72
2023/03/19 06:58:34;;;;;;;10.77;7.43;;;9.40;99.90;;;;;;5008269;28;20448;-72
2023/03/19 07:01:20;;;;;;;11.90;8.43;;;9.40;99.90;;;;;;5006947;28;20933;-72
2023/03/19 07:04:06;;;;;;;11.17;7.73;;;9.50;99.90;;;;;;5007773;28;20815;-72
2023/03/19 07:06:52;;;;;;;12.23;8.07;;;9.60;99.90;;;;;;5009801;28;20466;-72
2023/03/19 07:09:39;;;;;;;14.60;9.30;;;9.70;99.90;;;;;;5008551;28;21018;-72
2023/03/19 07:12:26;;;;;;;13.60;9.40;;;9.70;99.90;;;;;;5006014;28;20532;-72
2023/03/19 07:15:12;;;;;;;14.40;9.00;;;9.80;99.90;;;;;;5007030;28;20783;-72
2023/03/19 07:17:58;;;;;;;12.70;8.53;;;9.90;99.90;;;;;;5011758;28;20466;-72
2023/03/19 07:20:43;;;;;;;13.37;9.70;;;10.00;99.90;;;;;;5004626;28;20927;-72
2023/03/19 07:23:29;;;;;;;15.27;10.20;;;10.00;99.90;;;;;;5004536;28;20528;-72
2023/03/19 07:26:17;;;;;;;12.30;10.33;;;10.10;99.90;;;;;;5014738;28;20490;-72
2023/03/19 07:29:03;;;;;;;12.70;9.47;;;10.10;99.90;;;;;;5008942;28;20562;-72
2023/03/19 07:31:48;;;;;;;13.37;9.17;;;10.10;99.90;;;;;;5004675;28;20466;-72
2023/03/19 07:34:34;;;;;;;14.37;9.30;;;10.20;99.90;;;;;;5007412;28;20835;-72
2023/03/19 07:37:20;;;;;;;12.97;9.60;;;10.30;99.90;;;;;;5010173;28;20904;-72
2023/03/19 07:40:06;;;;;;;17.00;11.50;;;10.30;99.90;;;;;;5006983;28;20482;-72
2023/03/19 07:42:53;;;;;;;14.37;11.00;;;10.40;99.90;;;;;;5007015;28;20590;-72
2023/03/19 07:45:39;;;;;;;12.80;9.70;;;10.50;99.90;;;;;;5006932;28;20451;-72
2023/03/19 07:48:24;;;;;;;12.03;8.50;;;10.60;99.90;;;;;;5006989;28;20491;-72
2023/03/19 07:51:10;;;;;;;15.80;9.13;;;10.70;99.90;;;;;;5004927;28;20464;-72
2023/03/19 07:53:55;;;;;;;10.20;8.67;;;10.70;99.90;;;;;;5006175;28;20937;-72
2023/03/19 07:56:41;;;;;;;11.27;8.80;;;10.80;99.90;;;;;;5006810;28;20442;-72
2023/03/19 07:59:28;;;;;;;10.40;7.90;;;10.80;99.90;;;;;;5011843;28;20468;-72
2023/03/19 08:02:14;;;;;;;12.67;8.37;;;10.90;99.90;;;;;;4999962;28;21006;-72
2023/03/19 08:05:01;;;;;;;12.83;8.70;;;11.00;99.90;;;;;;5009377;28;20511;-72
2023/03/19 08:07:48;;;;;;;11.60;8.90;;;11.00;99.90;;;;;;5008461;28;20443;-72
2023/03/19 08:10:33;;;;;;;11.83;10.50;;;11.10;99.90;;;;;;5001254;28;20454;-72
2023/03/19 08:13:19;;;;;;;11.93;9.27;;;11.10;99.90;;;;;;5004247;28;21234;-72
2023/03/19 08:16:07;;;;;;;12.03;9.97;;;11.10;99.90;;;;;;5010135;28;21026;-72
2023/03/19 08:18:52;;;;;;;13.73;9.80;;;11.10;99.90;;;;;;5007348;28;20464;-72
2023/03/19 08:21:38;;;;;;;16.93;10.33;;;11.20;99.90;;;;;;5006937;28;20766;-72
2023/03/19 08:24:24;;;;;;;17.77;10.97;;;11.20;99.90;;;;;;5008592;28;20573;-72
2023/03/19 08:27:10;;;;;;;13.37;11.00;;;11.30;99.90;;;;;;5009041;28;20491;-72
2023/03/19 08:29:55;;;;;;;16.37;10.40;;;11.30;99.90;;;;;;5006877;28;20451;-72
2023/03/19 08:32:43;;;;;;;18.10;10.07;;;11.40;99.90;;;;;;5009385;28;20423;-72
2023/03/19 08:35:29;;;;;;;16.70;10.30;;;11.50;99.90;;;;;;5012631;28;20577;-72
2023/03/19 08:38:15;;;;;;;11.90;9.07;;;11.60;99.90;;;;;;5006229;28;20470;-72
2023/03/19 08:41:03;;;;;;;9.47;7.47;;;11.70;99.90;;;;;;4999537;28;20799;-72
2023/03/19 08:43:48;;;;;;;11.97;9.23;;;11.80;99.90;;;;;;5012245;28;20568;-72
2023/03/19 08:46:34;;;;;;;10.27;7.90;;;11.90;99.90;;;;;;5011453;28;21060;-72
2023/03/19 08:49:21;;;;;;;11.33;7.83;;;12.00;99.90;;;;;;5009533;28;21285;-72
2023/03/19 08:52:07;;;;;;;9.67;7.10;;;12.30;99.90;;;;;;5006736;28;20452;-72
2023/03/19 08:54:52;;;;;;;10.70;6.50;;;12.50;99.90;;;;;;5010435;28;20451;-72
2023/03/19 08:57:37;;;;;;;7.73;6.70;;;12.70;99.90;;;;;;5007796;28;20430;-72
2023/03/19 09:00:24;;;;;;;10.97;6.20;;;12.90;99.90;;;;;;5004702;28;20860;-72
2023/03/19 09:03:09;;;;;;;6.50;4.63;;;13.30;99.90;;;;;;5010348;28;20564;-72
2023/03/19 09:06:00;;;;;;;14.43;5.83;;;13.50;99.90;;;;;;5003258;28;20423;-72
2023/03/19 09:08:46;;;;;;;9.83;6.00;;;13.70;99.90;;;;;;5007591;28;20473;-72
2023/03/19 09:11:31;;;;;;;7.20;4.67;;;13.70;99.90;;;;;;5004440;28;20415;-72
2023/03/19 09:14:18;;;;;;;9.00;4.40;;;13.80;99.90;;;;;;5005065;28;20424;-72
2023/03/19 09:17:04;;;;;;;8.03;4.10;;;14.00;99.90;;;;;;5009626;28;20454;-72
2023/03/19 09:19:50;;;;;;;6.50;4.00;;;14.00;98.60;;;;;;5007079;28;20460;-72
2023/03/19 09:22:37;;;;;;;4.00;2.80;;;14.20;93.20;;;;;;5006953;28;20423;-72
2023/03/19 09:25:22;;;;;;;6.27;2.80;;;14.30;83.40;;;;;;5007025;28;20458;-72
2023/03/19 09:28:08;;;;;;;4.73;2.30;;;14.40;77.40;;;;;;5007897;28;20552;-72
2023/03/19 09:30:54;;;;;;;7.77;2.70;;;14.60;78.40;;;;;;5007779;28;20471;-72
2023/03/19 09:33:40;;;;;;;5.67;2.93;;;14.80;76.90;;;;;;5016585;28;20417;-72
2023/03/19 09:36:26;;;;;;;4.47;2.67;;;15.10;70.30;;;;;;5012260;28;20607;-72
2023/03/19 09:39:13;;;;;;;7.47;3.00;;;15.30;67.60;;;;;;5003521;28;20437;-72
2023/03/19 09:42:15;;;;;;;5.50;2.50;;;15.50;60.00;;;;;;5005000;28;20460;-72
2023/03/19 09:45:02;;;;;;;10.13;2.90;;;15.70;63.60;;;;;;5004722;28;20496;-72
2023/03/19 09:47:51;;;;;;;4.73;2.43;;;15.80;62.80;;;;;;4997264;28;20459;-72
2023/03/19 09:50:37;;;;;;;6.53;3.10;;;15.90;55.70;;;;;;5004647;28;20458;-72
2023/03/19 09:53:33;;;;;;;6.10;2.50;;;15.90;54.70;;;;;;5007176;28;20985;-73
2023/03/19 09:56:20;;;;;;;6.60;2.33;;;15.90;56.40;;;;;;5013753;28;20425;-72
2023/03/19 09:59:05;;;;;;;7.47;3.10;;;15.90;53.10;;;;;;5003521;28;20879;-72
2023/03/19 10:02:09;;;;;;;16.33;4.17;;;16.00;52.80;;;;;;5003778;28;20443;-71
2023/03/19 10:05:05;;;;;;;5.30;2.70;;;16.00;50.70;;;;;;4998314;28;20456;-71
2023/03/19 10:08:11;;;;;;;3.57;2.63;;;16.00;47.90;;;;;;5007348;28;21266;-72
2023/03/19 10:11:17;;;;;;;5.67;2.67;;;15.90;49.00;;;;;;5011687;28;20441;-72
2023/03/19 10:14:21;;;;;;;4.33;2.60;;;15.90;50.40;;;;;;5023418;28;20472;-71
2023/03/19 10:17:13;;;;;;;6.03;2.70;;;15.70;49.90;;;;;;5025879;28;20435;-71
2023/03/19 10:20:05;;;;;;;5.90;2.70;;;15.70;52.50;;;;;;5010433;28;20422;-71
2023/03/19 10:22:55;;;;;;;8.90;3.40;;;15.60;52.80;;;;;;5010786;28;20447;-71
2023/03/19 10:25:43;;;;;;;13.97;3.67;;;15.60;53.20;;;;;;5011798;28;20406;-72
2023/03/19 10:28:30;;;;;;;6.53;3.83;;;15.70;55.90;;;;;;5009064;28;20458;-71
2023/03/19 10:31:26;;;;;;;13.20;3.50;;;15.80;56.20;;;;;;5011293;28;20452;-71
2023/03/19 10:34:31;;;;;;;7.77;3.57;;;16.00;54.90;;;;;;5000799;28;20424;-72
2023/03/19 10:37:19;;;;;;;12.47;3.00;;;16.20;50.00;;;;;;5011627;28;20405;-71
2023/03/19 10:40:19;;;;;;;9.80;3.33;;;16.50;52.00;;;;;;4997132;28;20475;-71
2023/03/19 10:43:13;;;;;;;4.80;3.40;;;16.60;46.80;;;;;;5000472;28;21901;-73
2023/03/19 10:45:58;;;;;;;7.27;3.27;;;16.60;48.40;;;;;;4998212;28;20434;-71
2023/03/19 10:48:46;;;;;;;6.33;3.57;;;16.70;48.30;;;;;;5005742;28;20448;-70
2023/03/19 10:51:33;;;;;;;10.60;4.07;;;16.90;48.50;;;;;;4995023;28;20454;-71
2023/03/19 10:54:21;;;;;;;5.57;3.43;;;17.00;48.90;;;;;;5003451;28;20530;-71
2023/03/19 10:57:22;;;;;;;8.30;3.23;;;17.30;47.10;;;;;;4997860;28;20423;-71
2023/03/19 11:00:17;;;;;;;7.33;3.13;;;17.70;46.90;;;;;;5003804;28;20509;-71
2023/03/19 11:03:04;;;;;;;8.33;3.93;;;17.80;42.40;;;;;;4995416;28;20452;-71
2023/03/19 11:06:04;;;;;;;5.60;2.97;;;17.90;42.20;;;;;;5004703;28;21454;-71
2023/03/19 11:08:55;;;;;;;6.00;3.23;;;18.00;41.60;;;;;;5006042;28;20486;-71
2023/03/19 11:11:45;;;;;;;5.97;2.77;;;18.20;37.70;;;;;;5003818;28;20962;-71
2023/03/19 11:14:35;;;;;;;7.00;2.60;;;18.40;36.40;;;;;;4995485;28;20453;-71
2023/03/19 11:17:23;;;;;;;6.77;3.00;;;18.40;36.20;;;;;;4992453;28;20662;-71
2023/03/19 11:20:22;;;;;;;4.03;2.37;;;18.50;33.70;;;;;;4992755;28;20426;-71
2023/03/19 11:23:15;;;;;;;7.07;3.03;;;18.50;33.90;;;;;;4999001;28;20539;-71
2023/03/19 11:26:01;;;;;;;3.70;2.47;;;18.50;32.50;;;;;;4991745;28;21090;-71
2023/03/19 11:28:51;;;;;;;3.63;2.43;;;18.50;31.40;;;;;;4991836;28;23364;-71
2023/03/19 11:31:41;;;;;;;3.63;2.17;;;18.70;32.40;;;;;;4990927;28;20477;-70
2023/03/19 11:34:35;;;;;;;6.10;2.57;;;18.80;32.90;;;;;;4989806;28;20425;-70
2023/03/19 11:37:30;;;;;;;8.50;2.77;;;18.90;31.30;;;;;;4992392;28;20478;-70
2023/03/19 11:40:24;;;;;;;6.27;2.77;;;18.50;29.30;;;;;;4989147;28;20437;-71
2023/03/19 11:43:37;;;;;;;3.67;2.37;;;18.40;30.80;;;;;;4985386;28;20449;-71
2023/03/19 11:46:42;;;;;;;6.67;2.00;;;18.10;31.70;;;;;;4980854;28;20460;-70
2023/03/19 11:49:40;;;;;;;9.13;2.60;;;17.80;33.30;;;;;;4981969;28;20472;-71
2023/03/19 11:52:32;;;;;;;8.90;4.13;;;17.70;34.30;;;;;;4989816;28;20447;-70
2023/03/19 11:55:25;;;;;;;9.90;3.20;;;17.60;36.50;;;;;;4990333;28;20545;-71
2023/03/19 11:58:49;;;;;;;7.07;3.40;;;17.60;37.00;;;;;;4993238;28;20452;-71
2023/03/19 12:02:08;;;;;;;9.40;4.40;;;17.60;37.00;;;;;;4988866;28;20422;-70
2023/03/19 12:05:08;;;;;;;8.03;3.20;;;17.40;37.70;;;;;;4993820;28;20476;-71
2023/03/19 12:08:11;;;;;;;5.80;2.77;;;17.20;37.60;;;;;;5009105;23;20453;-87
2023/03/19 12:11:23;;;;;;;5.50;3.23;;;17.00;37.90;;;;;;5009700;28;20449;-87
2023/03/19 12:14:20;;;;;;;4.10;2.87;;;16.90;40.00;;;;;;5008047;28;20499;-87
2023/03/19 12:17:27;;;;;;;6.80;3.30;;;16.80;40.70;;;;;;5001894;28;20437;-88
2023/03/19 12:20:23;;;;;;;7.77;3.23;;;16.70;40.10;;;;;;4985228;28;20676;-87
2023/03/19 12:23:18;;;;;;;5.83;3.03;;;16.70;41.70;;;;;;4988287;28;20448;-87
2023/03/19 12:26:07;;;;;;;9.90;3.80;;;16.70;41.20;;;;;;4989281;28;20516;-88
2023/03/19 12:28:59;;;;;;;5.10;2.80;;;16.60;41.70;;;;;;4987024;28;20521;-88
2023/03/19 12:32:21;;;;;;;7.73;3.20;;;16.60;42.30;;;;;;4991156;28;20458;-87
2023/03/19 12:35:11;;;;;;;4.90;2.80;;;16.50;41.60;;;;;;4985374;28;20432;-87
2023/03/19 12:38:02;;;;;;;7.00;3.10;;;16.50;41.30;;;;;;4987764;28;20842;-84
2023/03/19 12:40:53;;;;;;;4.70;2.60;;;16.40;40.90;;;;;;4979239;28;20479;-85
2023/03/19 12:43:56;;;;;;;5.90;3.10;;;16.30;41.70;;;;;;4979283;28;20559;-84
2023/03/19 12:46:45;;;;;;;7.87;3.60;;;16.20;44.70;;;;;;4981232;28;20454;-85
2023/03/19 12:49:42;;;;;;;5.23;3.20;;;15.90;63.40;;;;;;4975392;28;20504;-84
2023/03/19 12:52:34;;;;;;;6.80;3.07;;;15.50;70.60;;;;;;4987851;28;20455;-84
2023/03/19 12:55:23;;;;;;;4.60;2.80;;;15.20;82.50;;;;;;4992066;28;20420;-84
2023/03/19 12:58:18;;;;;;;7.33;3.50;;;14.90;93.80;;;;;;4993139;28;20444;-86
2023/03/19 13:01:12;;;;;;;5.27;3.50;;;14.80;99.50;;;;;;4988207;28;20415;-85
2023/03/19 13:04:03;;;;;;;4.70;2.80;;;14.70;99.90;;;;;;4994254;28;20991;-85
2023/03/19 13:06:53;;;;;;;4.30;2.57;;;14.60;99.90;;;;;;4992980;28;20981;-85
2023/03/19 13:09:43;;;;;;;7.30;3.70;;;14.60;99.90;;;;;;4985704;28;20512;-84
2023/03/19 13:12:32;;;;;;;8.97;3.03;;;14.50;99.90;;;;;;4988756;28;20438;-85
2023/03/19 13:15:25;;;;;;;4.10;2.50;;;14.40;99.90;;;;;;4989247;28;20461;-84
2023/03/19 13:18:22;;;;;;;5.30;3.00;;;14.50;99.90;;;;;;4992218;28;20440;-85
2023/03/19 13:21:20;;;;;;;5.03;2.90;;;14.50;99.90;;;;;;4987210;28;20441;-84
2023/03/19 13:24:26;;;;;;;4.53;2.77;;;14.50;99.90;;;;;;4980655;28;20458;-85
2023/03/19 13:27:20;;;;;;;7.37;3.07;;;14.50;99.90;;;;;;4981110;28;20460;-84
2023/03/19 13:30:20;;;;;;;4.77;2.67;;;14.40;99.90;;;;;;4983446;28;20431;-85
2023/03/19 13:33:13;;;;;;;7.50;3.00;;;14.30;99.90;;;;;;4987670;28;20452;-85
2023/03/19 13:36:05;;;;;;;7.13;3.50;;;14.20;99.90;;;;;;4986660;28;20454;-84
2023/03/19 13:38:51;;;;;;;7.10;3.00;;;14.20;99.10;;;;;;4980781;28;20477;-85
2023/03/19 13:41:58;;;;;;;6.03;3.10;;;14.20;98.30;;;;;;4988046;28;20620;-84
2023/03/19 13:44:50;;;;;;;3.03;2.00;;;14.10;98.10;;;;;;4985451;28;20440;-85
2023/03/19 13:47:39;;;;;;;5.57;2.50;;;14.10;99.60;;;;;;4982709;28;20591;-85
2023/03/19 13:50:32;;;;;;;3.63;2.33;;;14.10;98.90;;;;;;4984869;28;20548;-86
2023/03/19 13:53:35;;;;;;;4.53;2.40;;;14.10;99.40;;;;;;4988051;28;20827;-85
2023/03/19 13:56:21;;;;;;;3.17;2.23;;;14.00;99.20;;;;;;4991630;28;20515;-86
2023/03/19 13:59:30;;;;;;;6.83;2.40;;;13.90;99.90;;;;;;4990432;28;20986;-86
2023/03/19 14:02:47;;;;;;;5.03;2.33;;;13.90;99.90;;;;;;4989754;28;20455;-86
2023/03/19 14:05:35;;;;;;;5.70;2.20;;;13.80;99.90;;;;;;4952272;28;20420;-86
2023/03/19 14:08:24;;;;;;;4.83;2.10;;;13.80;99.90;;;;;;4987904;28;20571;-86
2023/03/19 14:11:22;;;;;;;6.07;2.63;;;13.90;99.90;;;;;;4991768;28;20455;-86
2023/03/19 14:14:14;;;;;;;5.10;2.30;;;13.80;99.90;;;;;;4992499;28;20433;-85
2023/03/19 14:17:00;;;;;;;3.40;2.10;;;13.80;99.90;;;;;;4993180;28;20407;-86
2023/03/19 14:19:46;;;;;;;4.77;2.80;;;13.80;99.90;;;;;;4984201;28;20816;-86
2023/03/19 14:22:37;;;;;;;3.93;2.17;;;13.70;99.90;;;;;;4990255;28;20914;-86
2023/03/19 14:25:26;;;;;;;8.20;2.60;;;13.70;99.90;;;;;;4992474;28;20441;-86
2023/03/19 14:28:16;;;;;;;5.40;2.27;;;13.70;99.90;;;;;;4987969;28;20471;-86
2023/03/19 14:31:03;;;;;;;3.67;1.87;;;13.70;99.90;;;;;;4986538;28;20469;-85
2023/03/19 14:33:55;;;;;;;3.90;2.33;;;13.80;99.90;;;;;;4992192;28;20416;-86
2023/03/19 14:36:43;;;;;;;5.20;2.37;;;13.80;99.90;;;;;;4992797;28;20795;-86
2023/03/19 14:39:31;;;;;;;4.20;2.37;;;13.80;99.90;;;;;;4979641;28;21060;-86
2023/03/19 14:42:22;;;;;;;4.50;1.97;;;13.90;99.90;;;;;;4992805;28;20919;-86